Main page
METAR-TAF:

METAR-TAF

Airports :

Tekirdağ Çorlu Airport

Çorlu, Turkey

latitude: 41-08N, longitude: 027-55E, elevation: 173 m

Current weather observation

The report was made 39 minutes ago, at 16:20 UTC
Wind 16 kt from the North
Temperature 26°C
Humidity 65%
Pressure 1010 hPa
Visibility 10 km or more
no clouds below 1500 m and no cumulonimbus

METAR: LTBU 151620Z 01016KT CAVOK 26/19 Q1010

Time: 19:59 (16:59 UTC)

Forecast

The report was made 6 hours and 19 minutes ago, at 10:40 UTC
Forecast valid from 15 at 12 UTC to 16 at 12 UTC
Wind 18 kt from the Northeast with gusts up to 30 kt
Visibility 10 km or more
Scattered clouds at a height of 3500 ft
Becoming
from 15 at 18 UTC to 15 at 21 UTC
Wind 9 kt from the North/Northeast
Visibility 10 km or more
no clouds below 1500 m and no cumulonimbus
Becoming
from 15 at 22 UTC to 16 at 01 UTC
Scattered clouds at a height of 3500 ft

TAF: LTBU 151040Z 1512/1612 04018G30KT 9999 SCT035 BECMG 1518/1521 03009KT CAVOK BECMG 1522/1601 SCT035

Weather observations and forecasts of more than 4000 airports (METAR and TAF reports).

The available stations are represented by yellow and red dots on the map.

Hover mouse over dot to see the name of the station.

Then click to see weather observations and forecasts.

To change the map : click on the green buttons with a black cross to zoom in, on the green button with a dash to zoom out, or on the green arrows for adjacent maps.


METAR-TAF: